createdAt,value
2022-10-02T00:01:58.788Z,16.90
2022-10-02T00:07:06.856Z,16.50
2022-10-02T00:12:14.224Z,17.10
2022-10-02T00:17:25.351Z,17.10
2022-10-02T00:22:45.576Z,17.10
2022-10-02T00:28:15.539Z,17.10
2022-10-02T00:34:04.020Z,17.00
2022-10-02T00:39:27.971Z,16.90
2022-10-02T00:44:45.058Z,17.10
2022-10-02T00:50:17.944Z,17.00
2022-10-02T00:55:45.535Z,17.00
2022-10-02T01:01:11.404Z,16.90
2022-10-02T01:06:13.759Z,17.10
2022-10-02T01:11:16.107Z,17.00
2022-10-02T01:16:18.386Z,17.20
2022-10-02T01:21:31.156Z,16.90
2022-10-02T01:26:33.627Z,17.00
2022-10-02T01:31:36.266Z,17.00
2022-10-02T01:36:38.807Z,17.10
2022-10-02T01:41:44.442Z,17.00
2022-10-02T01:46:46.544Z,17.00
2022-10-02T01:52:17.912Z,17.10
2022-10-02T01:58:03.407Z,17.20
2022-10-02T02:04:00.131Z,17.00
2022-10-02T02:09:17.235Z,17.10
2022-10-02T02:14:33.016Z,16.90
2022-10-02T02:19:39.847Z,17.20
2022-10-02T02:24:54.388Z,17.10
2022-10-02T02:30:04.899Z,16.80
2022-10-02T02:35:21.643Z,17.10
2022-10-02T02:40:30.409Z,17.00
2022-10-02T02:45:37.658Z,17.30
2022-10-02T02:50:46.818Z,17.30
2022-10-02T02:55:58.235Z,17.20
2022-10-02T03:01:00.589Z,17.20
2022-10-02T03:06:20.435Z,17.30
2022-10-02T03:11:47.139Z,17.20
2022-10-02T03:16:49.229Z,17.10
2022-10-02T03:22:03.145Z,17.10
2022-10-02T03:27:13.919Z,17.10
2022-10-02T03:32:24.019Z,17.30
2022-10-02T03:37:27.412Z,17.20
2022-10-02T03:42:33.251Z,17.20
2022-10-02T03:47:35.403Z,17.30
2022-10-02T03:52:37.577Z,16.80
2022-10-02T03:57:42.722Z,17.30
2022-10-02T04:03:01.698Z,17.30
2022-10-02T04:08:12.922Z,17.10
2022-10-02T04:13:19.732Z,17.40
2022-10-02T04:18:36.229Z,17.40
2022-10-02T04:23:46.183Z,17.50
2022-10-02T04:28:58.284Z,17.40
2022-10-02T04:34:03.071Z,17.30
2022-10-02T04:39:23.392Z,17.40
2022-10-02T04:44:55.321Z,17.40
2022-10-02T04:50:16.119Z,17.40
2022-10-02T04:55:27.547Z,17.30
2022-10-02T05:00:45.471Z,17.20
2022-10-02T05:06:13.441Z,17.50
2022-10-02T05:11:40.365Z,17.30
2022-10-02T05:17:27.104Z,17.30
2022-10-02T05:22:44.266Z,17.20
2022-10-02T05:28:24.379Z,17.20
2022-10-02T05:33:38.706Z,17.20
2022-10-02T05:39:07.148Z,17.20
2022-10-02T05:44:22.336Z,17.40
2022-10-02T05:49:34.819Z,17.10
2022-10-02T05:54:36.916Z,17.30
2022-10-02T06:00:19.049Z,17.20
2022-10-02T06:05:26.950Z,17.20
2022-10-02T06:10:42.509Z,17.30
2022-10-02T06:15:52.089Z,17.20
2022-10-02T06:21:22.742Z,17.20
2022-10-02T06:26:40.094Z,17.00
2022-10-02T06:31:53.145Z,17.20
2022-10-02T06:37:26.911Z,16.70
2022-10-02T06:42:28.966Z,17.20
2022-10-02T06:47:49.796Z,17.00
2022-10-02T06:53:16.875Z,17.20
2022-10-02T06:58:39.672Z,17.30
2022-10-02T07:03:49.620Z,17.10
2022-10-02T07:09:12.382Z,17.20
2022-10-02T07:14:38.849Z,17.50
2022-10-02T07:19:51.925Z,17.20
2022-10-02T07:25:24.250Z,17.20
2022-10-02T07:30:33.258Z,17.10
2022-10-02T07:35:43.971Z,17.20
2022-10-02T07:41:16.395Z,17.20
2022-10-02T07:46:43.037Z,17.40
2022-10-02T07:51:57.850Z,17.30
2022-10-02T07:57:24.242Z,17.30
2022-10-02T08:03:00.324Z,17.20
2022-10-02T08:08:10.513Z,17.40
2022-10-02T08:13:45.871Z,17.40
2022-10-02T08:18:54.496Z,17.10
2022-10-02T08:24:04.336Z,17.50
2022-10-02T08:29:15.978Z,17.50
2022-10-02T08:34:23.579Z,17.60
2022-10-02T08:39:37.825Z,17.70
2022-10-02T08:44:45.806Z,17.60
2022-10-02T08:50:01.491Z,17.90
2022-10-02T08:55:26.037Z,17.80
2022-10-02T09:00:46.497Z,17.80
2022-10-02T09:06:00.657Z,18.10
2022-10-02T09:11:19.475Z,17.80
2022-10-02T09:16:59.803Z,17.80
2022-10-02T09:22:17.395Z,18.10
2022-10-02T09:27:31.499Z,18.10
2022-10-02T09:33:04.116Z,18.00
2022-10-02T09:38:39.260Z,18.10
2022-10-02T09:44:28.266Z,18.10
2022-10-02T09:49:44.654Z,18.00
2022-10-02T09:55:29.368Z,18.10
2022-10-02T10:01:08.430Z,18.20
2022-10-02T10:06:32.511Z,17.60
2022-10-02T10:12:03.125Z,18.10
2022-10-02T10:17:20.203Z,18.10
2022-10-02T10:22:40.145Z,18.20
2022-10-02T10:27:58.567Z,18.30
2022-10-02T10:33:25.430Z,18.00
2022-10-02T10:38:39.000Z,18.30
2022-10-02T10:44:19.714Z,18.30
2022-10-02T10:49:37.821Z,18.60
2022-10-02T10:55:07.959Z,18.40
2022-10-02T11:00:34.450Z,18.80
2022-10-02T11:06:12.433Z,18.70
2022-10-02T11:11:31.573Z,18.50
2022-10-02T11:16:52.670Z,18.80
2022-10-02T11:22:14.581Z,18.50
2022-10-02T11:27:42.690Z,18.80
2022-10-02T11:32:59.894Z,18.80
2022-10-02T11:38:45.441Z,18.80
2022-10-02T11:44:12.600Z,18.80
2022-10-02T11:49:29.430Z,18.30
2022-10-02T11:54:37.449Z,18.80
2022-10-02T11:59:49.372Z,18.60
2022-10-02T12:05:13.486Z,18.80
2022-10-02T12:10:30.422Z,18.80
2022-10-02T12:16:01.792Z,18.70
2022-10-02T12:21:40.045Z,18.80
2022-10-02T12:27:15.751Z,18.80
2022-10-02T12:32:24.338Z,18.80
2022-10-02T12:37:36.488Z,18.90
2022-10-02T12:43:11.336Z,18.90
2022-10-02T12:48:16.254Z,18.90
2022-10-02T12:53:49.781Z,19.10
2022-10-02T12:59:08.422Z,18.90
2022-10-02T13:04:47.899Z,18.90
2022-10-02T13:09:56.224Z,18.80
2022-10-02T13:15:43.510Z,18.80
2022-10-02T13:21:11.756Z,18.90
2022-10-02T13:26:24.488Z,18.80
2022-10-02T13:32:01.895Z,18.80
2022-10-02T13:37:19.123Z,18.70
2022-10-02T13:42:37.067Z,18.80
2022-10-02T13:47:44.023Z,18.60
2022-10-02T13:53:10.567Z,18.60
2022-10-02T13:58:30.509Z,18.40
2022-10-02T14:03:44.599Z,18.60
2022-10-02T14:08:52.514Z,18.60
2022-10-02T14:14:25.462Z,18.70
2022-10-02T14:19:30.326Z,18.80
2022-10-02T14:24:59.728Z,18.60
2022-10-02T14:30:21.301Z,18.50
2022-10-02T14:35:28.751Z,18.40
2022-10-02T14:40:49.504Z,18.50
2022-10-02T14:46:07.494Z,18.40
2022-10-02T14:51:56.045Z,18.50
2022-10-02T14:57:19.782Z,18.70
2022-10-02T15:02:44.684Z,18.60
2022-10-02T15:07:47.403Z,18.80
2022-10-02T15:13:09.249Z,18.70
2022-10-02T15:18:38.651Z,18.60
2022-10-02T15:23:50.419Z,18.70
2022-10-02T15:29:12.551Z,18.60
2022-10-02T15:34:33.620Z,18.50
2022-10-02T15:39:41.730Z,18.50
2022-10-02T15:45:06.440Z,18.30
2022-10-02T15:50:11.459Z,18.40
2022-10-02T15:55:40.334Z,18.30
2022-10-02T16:01:32.005Z,18.30
2022-10-02T16:06:53.481Z,18.10
2022-10-02T16:12:20.349Z,18.50
2022-10-02T16:17:36.227Z,18.20
2022-10-02T16:23:05.711Z,18.10
2022-10-02T16:28:31.345Z,18.10
2022-10-02T16:34:12.143Z,18.30
2022-10-02T16:39:39.837Z,17.90
2022-10-02T16:45:01.225Z,18.00
2022-10-02T16:50:24.461Z,17.80
2022-10-02T16:55:41.886Z,18.10
2022-10-02T17:00:43.965Z,17.90
2022-10-02T17:05:56.324Z,18.00
2022-10-02T17:11:27.894Z,17.90
2022-10-02T17:16:47.298Z,18.00
2022-10-02T17:22:01.391Z,17.50
2022-10-02T17:27:27.598Z,17.70
2022-10-02T17:32:51.110Z,17.50
2022-10-02T17:38:30.542Z,17.40
2022-10-02T17:43:50.559Z,17.70
2022-10-02T17:49:22.905Z,17.40
2022-10-02T17:55:03.466Z,17.00
2022-10-02T18:00:28.557Z,17.20
2022-10-02T18:05:49.071Z,16.90
2022-10-02T18:11:05.819Z,17.30
2022-10-02T18:16:33.177Z,16.90
2022-10-02T18:21:50.722Z,16.90
2022-10-02T18:27:05.022Z,16.60
2022-10-02T18:32:20.214Z,16.50
2022-10-02T18:38:07.078Z,16.00
2022-10-02T18:43:33.462Z,16.30
2022-10-02T18:48:35.495Z,16.10
2022-10-02T18:53:37.523Z,15.90
2022-10-02T18:58:56.787Z,15.80
2022-10-02T19:04:29.870Z,15.70
2022-10-02T19:09:32.130Z,15.70
2022-10-02T19:14:41.782Z,15.50
2022-10-02T19:19:44.595Z,15.50
2022-10-02T19:24:51.895Z,15.40
2022-10-02T19:30:01.304Z,15.30
2022-10-02T19:35:15.206Z,15.20
2022-10-02T19:40:24.714Z,15.00
2022-10-02T19:45:32.624Z,14.90
2022-10-02T19:50:55.265Z,14.70
2022-10-02T19:55:59.908Z,14.70
2022-10-02T20:01:03.743Z,14.70
2022-10-02T20:06:21.036Z,14.90
2022-10-02T20:11:26.583Z,14.60
2022-10-02T20:16:47.333Z,14.50
2022-10-02T20:21:58.065Z,14.30
2022-10-02T20:27:11.381Z,14.30
2022-10-02T20:32:15.743Z,14.00
2022-10-02T20:37:26.137Z,14.20
2022-10-02T20:42:35.480Z,14.10
2022-10-02T20:48:03.675Z,14.00
2022-10-02T20:53:26.871Z,14.00
2022-10-02T20:58:45.012Z,13.90
2022-10-02T21:04:09.443Z,13.90
2022-10-02T21:09:33.425Z,14.00
2022-10-02T21:15:12.279Z,13.70
2022-10-02T21:20:46.170Z,13.60
2022-10-02T21:25:49.908Z,13.60
2022-10-02T21:31:21.929Z,13.50
2022-10-02T21:36:33.590Z,13.40
2022-10-02T21:42:03.520Z,13.40
2022-10-02T21:47:23.209Z,13.40
2022-10-02T21:52:46.601Z,13.40
2022-10-02T21:58:10.221Z,13.30
2022-10-02T22:03:40.872Z,13.30
2022-10-02T22:09:18.282Z,13.10
2022-10-02T22:14:41.084Z,13.10
2022-10-02T22:19:49.055Z,13.00
2022-10-02T22:25:11.332Z,13.00
2022-10-02T22:30:28.293Z,13.00
2022-10-02T22:36:07.408Z,13.00
2022-10-02T22:41:35.939Z,13.00
2022-10-02T22:46:47.345Z,12.80
2022-10-02T22:52:00.145Z,13.20
2022-10-02T22:57:03.361Z,13.10
2022-10-02T23:02:11.613Z,13.20
2022-10-02T23:07:30.974Z,13.20
2022-10-02T23:12:40.835Z,13.50
2022-10-02T23:17:53.165Z,13.50
2022-10-02T23:23:41.292Z,13.60
2022-10-02T23:29:19.196Z,13.50
2022-10-02T23:34:33.401Z,13.50
2022-10-02T23:40:16.166Z,13.70
2022-10-02T23:45:34.364Z,13.50
2022-10-02T23:51:12.364Z,13.80
2022-10-02T23:56:33.128Z,14.00
